Time;durP1;ratioP1;P1;durP2;ratioP2;P2;SDS_P1;SDS_P2;PMS_P1;PMS_P2;Temp;Humidity;BMP_temperature;BMP_pressure;BME280_temperature;BME280_humidity;BME280_pressure;Samples;Min_cycle;Max_cycle;Signal;HPM_P1;HPM_P2
2022/08/17 00:00:59;;;;;;;17.00;13.63;;;;;;;17.34;100.00;156877.34;4905676;29;20044;-78
2022/08/17 00:03:28;;;;;;;18.98;15.45;;;;;;;17.29;100.00;156865.75;4911994;29;20088;-79
2022/08/17 00:06:00;;;;;;;18.50;14.93;;;;;;;17.31;100.00;156870.91;4878928;29;20043;-79
2022/08/17 00:08:33;;;;;;;20.25;15.32;;;;;;;17.29;100.00;156864.44;4897968;29;20043;-78
2022/08/17 00:11:00;;;;;;;23.33;16.65;;;;;;;17.29;100.00;156865.75;4909501;29;20044;-80
2022/08/17 00:13:31;;;;;;;24.67;15.48;;;;;;;17.31;100.00;156870.91;4896635;29;20060;-78
2022/08/17 00:16:00;;;;;;;18.33;15.50;;;;;;;17.28;100.00;156863.16;4904555;29;20127;-79
2022/08/17 00:18:27;;;;;;;22.08;16.88;;;;;;;17.27;100.00;156859.31;4898373;29;20507;-79
2022/08/17 00:20:54;;;;;;;18.80;16.75;;;;;;;17.20;100.00;156842.56;4912182;29;20040;-78
2022/08/17 00:23:21;;;;;;;18.67;16.27;;;;;;;17.17;100.00;156834.84;4911418;29;20052;-79
2022/08/17 00:25:47;;;;;;;21.45;16.73;;;;;;;17.14;100.00;156827.13;4880402;29;20032;-80
2022/08/17 00:28:14;;;;;;;20.40;16.23;;;;;;;17.15;100.00;156829.69;4905779;29;20704;-79
2022/08/17 00:30:45;;;;;;;20.27;16.63;;;;;;;17.11;100.00;156820.66;4909527;29;20123;-77
2022/08/17 00:33:15;;;;;;;20.45;17.05;;;;;;;17.08;100.00;156812.97;4911220;29;20076;-79
2022/08/17 00:35:41;;;;;;;19.50;17.15;;;;;;;17.08;100.00;156811.66;4892514;29;20047;-78
2022/08/17 00:38:08;;;;;;;19.98;17.83;;;;;;;17.02;100.00;156796.19;4908032;29;20048;-80
2022/08/17 00:40:53;;;;;;;25.73;19.05;;;;;;;17.01;100.00;156793.59;4911974;29;20042;-80
2022/08/17 00:43:24;;;;;;;23.60;18.38;;;;;;;16.98;100.00;156785.91;4910509;29;20107;-80
2022/08/17 00:45:51;;;;;;;26.75;21.83;;;;;;;16.89;100.00;156765.28;4908716;29;20518;-78
2022/08/17 00:48:17;;;;;;;28.00;22.70;;;;;;;16.86;100.00;156756.28;4896146;29;20554;-79
2022/08/17 00:50:54;;;;;;;26.98;21.67;;;;;;;16.86;100.00;156756.28;4880542;29;20044;-79
2022/08/17 00:53:21;;;;;;;24.38;20.50;;;;;;;16.82;100.00;156747.28;4906547;29;20074;-78
2022/08/17 00:55:47;;;;;;;25.63;20.98;;;;;;;16.84;100.00;156751.09;4910323;29;20123;-75
2022/08/17 00:58:13;;;;;;;26.58;22.33;;;;;;;16.78;100.00;156735.63;4924936;29;20051;-78
2022/08/17 01:00:44;;;;;;;22.90;20.60;;;;;;;16.81;100.00;156743.34;4903542;29;20092;-80
2022/08/17 01:03:14;;;;;;;25.08;21.02;;;;;;;16.77;100.00;156734.34;4896203;29;20044;-77
2022/08/17 01:05:40;;;;;;;29.13;23.02;;;;;;;16.78;100.00;156736.88;4892205;29;20043;-79
2022/08/17 01:08:09;;;;;;;25.25;22.40;;;;;;;16.77;100.00;156734.34;4883206;29;20043;-78
2022/08/17 01:10:41;;;;;;;25.17;22.27;;;;;;;16.73;100.00;156725.31;4912322;29;20124;-78
2022/08/17 01:13:07;;;;;;;37.97;22.50;;;;;;;16.73;100.00;156725.31;4879483;29;20036;-79
2022/08/17 01:15:38;;;;;;;24.98;22.27;;;;;;;16.74;100.00;156727.91;4911500;29;20047;-79
2022/08/17 01:18:07;;;;;;;31.63;25.15;;;;;;;16.74;100.00;156727.91;4912628;29;20028;-79
2022/08/17 01:20:33;;;;;;;25.60;22.58;;;;;;;16.68;100.00;156712.44;4914974;29;20090;-80
2022/08/17 01:22:59;;;;;;;34.90;24.25;;;;;;;16.67;100.00;156709.88;4888016;29;20506;-79
2022/08/17 01:25:27;;;;;;;29.80;24.30;;;;;;;16.68;100.00;156711.16;4906980;29;20142;-78
2022/08/17 01:27:52;;;;;;;27.70;24.45;;;;;;;16.69;100.00;156715.03;4911261;29;20046;-79
2022/08/17 01:30:18;;;;;;;28.52;25.52;;;;;;;16.68;100.00;156711.16;4911585;29;20489;-77
2022/08/17 01:32:44;;;;;;;29.90;26.52;;;;;;;16.68;100.00;156712.44;4911435;29;20072;-78
2022/08/17 01:35:10;;;;;;;28.55;24.52;;;;;;;16.67;100.00;156708.56;4910867;29;20039;-77
2022/08/17 01:37:39;;;;;;;27.10;24.27;;;;;;;16.67;100.00;156708.56;4893807;29;20040;-79
2022/08/17 01:40:13;;;;;;;30.02;26.98;;;;;;;16.66;100.00;156706.00;4892059;29;20099;-77
2022/08/17 01:42:50;;;;;;;31.35;26.23;;;;;;;16.65;100.00;156703.41;4912064;29;20032;-77
2022/08/17 01:45:21;;;;;;;32.60;26.27;;;;;;;16.63;100.00;156698.25;4902783;29;20032;-77
2022/08/17 01:47:48;;;;;;;32.83;28.13;;;;;;;16.62;100.00;156695.72;4892370;29;20090;-77
2022/08/17 01:50:19;;;;;;;35.45;29.20;;;;;;;16.61;100.00;156693.13;4895437;29;20032;-79
2022/08/17 01:52:47;;;;;;;31.55;28.15;;;;;;;16.54;100.00;156676.41;4909531;29;20506;-76
2022/08/17 01:55:16;;;;;;;30.45;27.23;;;;;;;16.47;100.00;156658.38;4922262;29;20036;-78
2022/08/17 01:57:44;;;;;;;29.27;26.10;;;;;;;16.49;100.00;156664.78;4881095;29;20394;-79
2022/08/17 02:00:10;;;;;;;30.25;27.08;;;;;;;16.49;100.00;156663.50;4894150;29;20066;-81
2022/08/17 02:02:37;;;;;;;31.92;27.85;;;;;;;16.48;100.00;156662.25;4895243;29;20066;-79
2022/08/17 02:05:03;;;;;;;37.75;31.63;;;;;;;16.47;100.00;156658.38;4924016;29;20055;-79
2022/08/17 02:07:28;;;;;;;35.13;30.27;;;;;;;16.44;100.00;156650.63;4873438;29;20036;-80
2022/08/17 02:09:54;;;;;;;33.47;29.90;;;;;;;16.47;100.00;156658.38;4893279;29;20119;-78
2022/08/17 02:12:19;;;;;;;39.35;31.27;;;;;;;16.45;100.00;156654.50;4904361;29;20040;-78
2022/08/17 02:14:45;;;;;;;33.67;30.08;;;;;;;16.41;100.00;156644.22;4891246;29;20066;-79
2022/08/17 02:17:11;;;;;;;38.13;31.27;;;;;;;16.42;100.00;156646.75;4925722;29;20039;-80
2022/08/17 02:19:36;;;;;;;39.17;30.65;;;;;;;16.44;100.00;156650.63;4924042;29;20060;-80
2022/08/17 02:22:02;;;;;;;34.28;30.67;;;;;;;16.40;100.00;156641.59;4924728;29;20050;-78
2022/08/17 02:24:31;;;;;;;35.28;31.10;;;;;;;16.38;100.00;156636.47;4891549;29;20036;-78
2022/08/17 02:26:57;;;;;;;31.88;28.33;;;;;;;16.39;100.00;156639.06;4909875;29;20147;-78
2022/08/17 02:29:23;;;;;;;33.05;29.58;;;;;;;16.40;100.00;156641.59;4903803;29;20119;-79
2022/08/17 02:31:48;;;;;;;34.05;28.67;;;;;;;16.40;100.00;156640.34;4878836;29;20068;-79
2022/08/17 02:34:14;;;;;;;31.10;27.80;;;;;;;16.39;100.00;156637.75;4896281;29;20086;-80
2022/08/17 02:36:40;;;;;;;32.97;29.40;;;;;;;16.35;100.00;156630.03;4907563;29;20047;-79
2022/08/17 02:39:09;;;;;;;32.17;28.60;;;;;;;16.35;100.00;156628.78;4923994;29;20044;-79
2022/08/17 02:41:35;;;;;;;29.75;26.67;;;;;;;16.38;100.00;156635.19;4881175;29;20036;-78
2022/08/17 02:44:01;;;;;;;34.58;30.02;;;;;;;16.42;100.00;156645.47;4910254;29;20036;-79
2022/08/17 02:46:27;;;;;;;33.38;29.83;;;;;;;16.36;100.00;156631.31;4910466;29;20063;-80
2022/08/17 02:48:53;;;;;;;39.47;29.23;;;;;;;16.39;100.00;156639.06;4894911;29;20044;-79
2022/08/17 02:51:18;;;;;;;32.13;27.60;;;;;;;16.37;100.00;156633.91;4908169;29;20099;-80
2022/08/17 02:53:44;;;;;;;34.13;30.35;;;;;;;16.39;100.00;156637.75;4909135;29;20088;-81
2022/08/17 02:56:09;;;;;;;32.25;28.77;;;;;;;16.37;100.00;156632.59;4909250;29;20055;-78
2022/08/17 02:58:35;;;;;;;39.53;34.28;;;;;;;16.36;100.00;156631.31;4912125;29;20040;-78
2022/08/17 03:01:05;;;;;;;40.33;35.22;;;;;;;16.32;100.00;156621.03;4911246;29;20558;-80
2022/08/17 03:03:31;;;;;;;39.28;35.08;;;;;;;16.30;100.00;156615.88;4903502;29;20139;-81
2022/08/17 03:05:56;;;;;;;43.10;35.53;;;;;;;16.28;100.00;156610.75;4902619;29;20048;-82
2022/08/17 03:08:24;;;;;;;39.50;34.58;;;;;;;16.28;100.00;156610.75;4902675;29;20040;-78
2022/08/17 03:10:49;;;;;;;38.13;34.03;;;;;;;16.25;100.00;156604.28;4882866;29;20530;-78
2022/08/17 03:13:15;;;;;;;35.53;31.85;;;;;;;16.22;100.00;156595.25;4915313;29;20032;-74
2022/08/17 03:15:44;;;;;;;43.75;35.47;;;;;;;16.21;100.00;156593.97;4909412;29;20078;-76
2022/08/17 03:18:11;;;;;;;43.05;35.90;;;;;;;16.19;100.00;156588.84;4894402;29;20391;-75
2022/08/17 03:20:37;;;;;;;39.50;35.33;;;;;;;16.21;100.00;156592.72;4926473;29;20036;-76
2022/08/17 03:23:03;;;;;;;40.67;36.28;;;;;;;16.16;100.00;156581.09;4914633;29;20052;-76
2022/08/17 03:25:36;;;;;;;41.03;35.63;;;;;;;16.13;100.00;156574.69;4898591;29;20598;-76
2022/08/17 03:28:01;;;;;;;;;;;;;;;16.10;100.00;156566.94;4915496;29;20036;-76
2022/08/17 03:30:28;;;;;;;44.20;38.88;;;;;;;16.05;100.00;156554.09;4890743;29;19970;-74
2022/08/17 03:32:58;;;;;;;43.65;38.35;;;;;;;16.03;100.00;156547.63;4928249;29;20048;-76
2022/08/17 03:35:27;;;;;;;42.90;38.22;;;;;;;16.02;100.00;156546.34;4930168;29;20047;-76
2022/08/17 03:37:53;;;;;;;43.20;38.55;;;;;;;16.02;100.00;156545.09;4903521;29;20040;-77
2022/08/17 03:40:19;;;;;;;47.95;39.10;;;;;;;16.01;100.00;156543.81;4916234;29;20068;-76
2022/08/17 03:42:45;;;;;;;44.78;37.97;;;;;;;16.00;100.00;156539.94;4932174;29;20028;-76
2022/08/17 03:45:16;;;;;;;42.38;36.13;;;;;;;16.00;100.00;156539.94;4916147;29;20056;-76
2022/08/17 03:58:46;;;;;;;38.78;32.92;;;;;;;15.93;100.00;156524.44;4916501;29;20483;-75
2022/08/17 04:01:12;;;;;;;38.30;34.13;;;;;;;15.91;100.00;156519.31;4931610;29;20048;-76
2022/08/17 04:03:38;;;;;;;41.60;32.45;;;;;;;15.91;100.00;156518.03;4929413;29;20039;-76
2022/08/17 04:06:04;;;;;;;41.70;35.25;;;;;;;15.92;100.00;156520.63;4912391;29;20036;-75
2022/08/17 04:08:30;;;;;;;37.05;32.90;;;;;;;15.95;100.00;156528.31;4899348;29;20044;-77
2022/08/17 04:10:56;;;;;;;38.08;33.40;;;;;;;15.90;100.00;156515.50;4929535;29;20036;-76
2022/08/17 04:13:22;;;;;;;37.97;32.58;;;;;;;15.90;100.00;156515.50;4895136;29;20040;-76
2022/08/17 04:15:48;;;;;;;40.42;32.45;;;;;;;15.94;100.00;156525.78;4914107;29;20051;-77
2022/08/17 04:18:17;;;;;;;39.10;33.15;;;;;;;15.95;100.00;156528.31;4914005;29;20035;-75
2022/08/17 04:20:43;;;;;;;40.50;33.10;;;;;;;15.96;100.00;156530.91;4912842;29;20036;-76
2022/08/17 04:23:14;;;;;;;38.10;31.27;;;;;;;16.04;100.00;156551.50;4895035;29;20047;-77
2022/08/17 04:25:47;;;;;;;47.53;35.73;;;;;;;16.06;100.00;156555.38;4912621;29;20087;-77
2022/08/17 04:28:15;;;;;;;43.22;35.45;;;;;;;16.07;100.00;156559.25;4914598;29;20074;-76
2022/08/17 04:30:41;;;;;;;38.60;33.38;;;;;;;16.10;100.00;156565.66;4897498;29;20048;-75
2022/08/17 04:33:13;;;;;;;43.45;34.55;;;;;;;16.16;100.00;156581.09;4914130;29;20036;-75
2022/08/17 04:35:50;;;;;;;37.92;33.83;;;;;;;16.23;100.00;156597.84;4913815;29;20051;-76
2022/08/17 04:38:20;;;;;;;38.80;33.80;;;;;;;16.20;100.00;156591.44;4919482;29;20049;-76
2022/08/17 04:43:31;;;;;;;36.70;31.77;;;;;;;16.29;100.00;156614.59;4927515;29;20036;-75
2022/08/17 04:46:00;;;;;;;48.72;36.60;;;;;;;16.28;100.00;156612.00;4908402;29;20040;-76
2022/08/17 04:48:29;;;;;;;38.78;32.95;;;;;;;16.31;100.00;156618.44;4913035;29;20031;-75
2022/08/17 04:50:54;;;;;;;40.60;33.90;;;;;;;16.30;100.00;156617.16;4911546;29;20047;-75
2022/08/17 04:53:20;;;;;;;51.33;35.08;;;;;;;16.31;100.00;156619.75;4907131;29;20042;-76
2022/08/17 04:55:46;;;;;;;39.95;33.47;;;;;;;16.35;100.00;156628.78;4881780;29;20049;-75
2022/08/17 04:58:12;;;;;;;45.47;35.03;;;;;;;16.38;100.00;156635.19;4918765;29;20486;-76
2022/08/17 05:00:38;;;;;;;41.85;31.98;;;;;;;16.40;100.00;156640.34;4908009;29;20073;-74
2022/08/17 05:03:04;;;;;;;39.25;31.58;;;;;;;16.49;100.00;156663.50;4909579;29;20037;-75
2022/08/17 05:05:35;;;;;;;31.98;28.58;;;;;;;16.52;100.00;156672.53;4910266;29;20040;-74
2022/08/17 05:08:03;;;;;;;47.42;32.92;;;;;;;16.61;100.00;156693.13;4896993;29;20040;-75
2022/08/17 05:10:34;;;;;;;44.25;33.63;;;;;;;16.69;100.00;156715.03;4912431;29;20052;-76
2022/08/17 05:13:04;;;;;;;35.22;30.02;;;;;;;16.81;100.00;156743.34;4921535;29;20033;-75
2022/08/17 05:15:30;;;;;;;36.50;31.88;;;;;;;16.96;100.00;156780.75;4909522;29;20040;-75
2022/08/17 05:17:56;;;;;;;35.35;31.40;;;;;;;17.10;100.00;156816.78;4911764;29;20079;-76
2022/08/17 05:20:22;;;;;;;37.67;31.92;;;;;;;17.23;100.00;156849.00;4913587;29;20077;-76
2022/08/17 05:22:54;;;;;;;38.20;29.27;;;;;;;17.33;100.00;156874.78;4911960;29;20065;-75
2022/08/17 05:25:23;;;;;;;38.45;29.85;;;;;;;17.48;100.00;156912.16;4910164;29;20131;-75
2022/08/17 05:27:49;;;;;;;37.20;29.30;;;;;;;17.64;100.00;156952.06;4926139;29;20392;-76
2022/08/17 05:30:16;;;;;;;34.70;29.25;;;;;;;17.74;100.00;156977.81;4893404;29;20518;-76
2022/08/17 05:32:57;;;;;;;35.08;28.27;;;;;;;17.89;100.00;157015.25;4912109;29;20381;-75
2022/08/17 05:35:25;;;;;;;43.47;29.10;;;;;;;17.99;100.00;157041.03;4909827;29;20071;-76
2022/08/17 05:37:52;;;;;;;31.63;27.20;;;;;;;18.06;100.00;157057.75;4910040;29;20481;-74
2022/08/17 05:40:19;;;;;;;32.60;27.33;;;;;;;18.12;100.00;157071.94;4925654;29;20040;-75
2022/08/17 05:42:45;;;;;;;31.02;26.90;;;;;;;18.19;100.00;157091.28;4927576;29;20039;-75
2022/08/17 05:45:12;;;;;;;34.67;25.73;;;;;;;18.29;100.00;157115.78;4909607;29;20506;-76
2022/08/17 05:47:38;;;;;;;36.67;28.92;;;;;;;18.35;100.00;157129.97;4910169;29;20036;-76
2022/08/17 05:50:07;;;;;;;28.00;24.85;;;;;;;18.43;100.00;157150.56;4911238;29;20138;-75
2022/08/17 05:53:01;;;;;;;29.23;25.88;;;;;;;18.51;100.00;157169.91;4912004;29;20047;-76
2022/08/17 05:56:01;;;;;;;33.17;24.33;;;;;;;18.58;100.00;157189.25;4888540;29;20041;-76
2022/08/17 05:59:01;;;;;;;26.13;23.25;;;;;;;18.70;100.00;157217.59;4909379;29;20058;-75
2022/08/17 06:01:46;;;;;;;25.65;22.95;;;;;;;18.84;100.00;157255.03;4911333;29;20379;-76
2022/08/17 06:04:40;;;;;;;27.10;24.15;;;;;;;18.95;100.00;157280.81;4889445;29;20612;-76
2022/08/17 06:07:22;;;;;;;25.05;21.90;;;;;;;19.06;100.00;157309.19;4911611;29;20063;-76
2022/08/17 06:10:08;;;;;;;26.35;22.33;;;;;;;19.16;100.00;157333.72;4910627;29;20478;-75
2022/08/17 06:12:56;;;;;;;26.83;21.75;;;;;;;19.31;100.00;157371.06;4907358;29;20047;-75
2022/08/17 06:15:48;;;;;;;25.92;21.20;;;;;;;19.42;100.00;157400.75;4877503;29;20044;-75
2022/08/17 06:18:17;;;;;;;25.92;21.10;;;;;;;19.65;100.00;157457.50;4904921;29;20783;-76
2022/08/17 06:21:02;;;;;;;23.52;19.02;;;;;;;19.88;100.00;157514.31;4910901;29;20035;-76
2022/08/17 06:23:34;;;;;;;23.60;20.88;;;;;;;19.95;100.00;157533.66;4908260;29;20273;-75
2022/08/17 06:26:07;;;;;;;26.93;19.20;;;;;;;20.06;100.00;157559.44;4895482;29;20131;-76
2022/08/17 06:28:38;;;;;;;23.02;19.52;;;;;;;20.14;100.00;157580.13;4891330;29;20828;-76
2022/08/17 06:31:21;;;;;;;25.10;20.02;;;;;;;20.27;100.00;157612.34;4910262;29;20425;-76
2022/08/17 06:33:47;;;;;;;21.73;18.70;;;;;;;20.36;100.00;157635.56;4924228;29;20048;-75
2022/08/17 06:36:25;;;;;;;20.05;17.95;;;;;;;20.47;100.00;157662.66;4925542;29;20223;-75
2022/08/17 06:38:57;;;;;;;19.50;17.17;;;;;;;20.62;100.00;157701.44;4906601;29;20453;-77
2022/08/17 06:41:36;;;;;;;22.70;16.60;;;;;;;20.69;100.00;157719.50;4909915;29;20147;-76
2022/08/17 06:44:14;;;;;;;23.15;17.92;;;;;;;20.94;100.00;157781.44;4925988;29;20079;-75
2022/08/17 06:46:47;;;;;;;19.55;15.82;;;;;;;21.09;100.00;157818.88;4893814;29;20067;-75
2022/08/17 06:49:25;;;;;;;17.77;15.98;;;;;;;21.28;100.00;157866.66;4891239;29;20968;-76
2022/08/17 06:52:11;;;;;;;17.30;15.43;;;;;;;21.42;100.00;157901.47;4925710;29;20036;-75
2022/08/17 06:55:01;;;;;;;24.58;16.55;;;;;;;21.45;100.00;157910.56;4901703;29;20044;-75
2022/08/17 06:57:30;;;;;;;18.65;16.60;;;;;;;21.53;100.00;157929.94;4910657;29;20036;-76
2022/08/17 07:00:06;;;;;;;19.10;15.48;;;;;;;21.62;100.00;157953.19;4910388;29;20040;-75
2022/08/17 07:03:04;;;;;;;18.95;14.93;;;;;;;21.67;100.00;157964.84;4920525;29;20033;-75
2022/08/17 07:05:43;;;;;;;16.88;15.07;;;;;;;21.76;100.00;157989.34;4923291;29;20550;-76
2022/08/17 07:08:21;;;;;;;17.15;15.18;;;;;;;21.93;100.00;158030.69;4926319;29;20040;-76
2022/08/17 07:10:51;;;;;;;19.88;14.73;;;;;;;22.01;100.00;158050.06;4911389;29;20127;-75
2022/08/17 07:13:30;;;;;;;16.90;13.93;;;;;;;22.19;100.00;158096.56;4912436;29;20111;-75
2022/08/17 07:16:04;;;;;;;19.77;15.68;;;;;;;22.26;100.00;158114.66;4900156;29;20040;-75
2022/08/17 07:18:32;;;;;;;18.98;14.90;;;;;;;22.38;100.00;158143.06;4894438;29;20547;-75
2022/08/17 07:21:07;;;;;;;18.50;13.75;;;;;;;22.46;100.00;158165.06;4927074;29;20040;-75
2022/08/17 07:23:50;;;;;;;17.80;15.13;;;;;;;22.62;100.00;158205.13;4924824;29;20059;-75
2022/08/17 07:26:15;;;;;;;19.00;14.00;;;;;;;22.74;100.00;158234.81;4911661;29;20562;-75
2022/08/17 07:28:42;;;;;;;16.27;13.00;;;;;;;22.87;100.00;158268.41;4911615;29;20070;-75
2022/08/17 07:31:12;;;;;;;14.32;12.25;;;;;;;23.01;100.00;158302.00;4924147;29;20074;-75
2022/08/17 07:33:38;;;;;;;13.60;12.00;;;;;;;23.08;100.00;158321.41;4925496;29;20063;-75
2022/08/17 07:36:04;;;;;;;17.08;11.55;;;;;;;23.09;98.30;158324.03;4909265;29;20042;-76
2022/08/17 07:38:34;;;;;;;13.50;11.25;;;;;;;23.11;100.00;158327.88;4909765;29;20031;-77
2022/08/17 07:41:04;;;;;;;14.10;10.20;;;;;;;23.25;97.80;158362.78;4910398;29;20044;-76
2022/08/17 07:43:47;;;;;;;14.82;11.88;;;;;;;23.31;99.62;158379.56;4905825;29;20048;-75
2022/08/17 07:49:07;;;;;;;13.75;12.35;;;;;;;23.39;100.00;158397.66;4892091;29;20044;-76
2022/08/17 07:51:42;;;;;;;13.00;11.40;;;;;;;23.48;100.00;158422.22;4904571;29;20033;-76
2022/08/17 07:54:14;;;;;;;17.25;12.27;;;;;;;23.64;100.00;158460.97;4895630;29;20091;-76
2022/08/17 07:56:51;;;;;;;12.75;10.40;;;;;;;23.77;99.01;158494.63;4911057;29;20043;-75
2022/08/17 07:59:20;;;;;;;14.45;10.45;;;;;;;23.87;96.53;158519.22;4915239;29;20048;-75
2022/08/17 08:02:04;;;;;;;15.15;11.05;;;;;;;23.90;96.94;158526.94;4914115;29;20574;-75
2022/08/17 08:04:39;;;;;;;14.13;10.75;;;;;;;23.92;96.74;158532.13;4915039;29;20044;-75
2022/08/17 08:07:11;;;;;;;14.85;10.70;;;;;;;24.07;96.36;158570.94;4912502;29;20052;-76
2022/08/17 08:09:41;;;;;;;12.82;10.10;;;;;;;24.14;95.99;158587.72;4915655;29;20406;-76
2022/08/17 08:12:38;;;;;;;15.80;11.23;;;;;;;24.23;96.31;158611.00;4915100;29;20044;-75
2022/08/17 08:15:17;;;;;;;16.70;10.95;;;;;;;24.29;95.78;158626.50;4903607;29;20040;-76
2022/08/17 08:17:58;;;;;;;12.35;9.88;;;;;;;24.48;94.97;158674.34;4929505;29;20047;-76
2022/08/17 08:20:52;;;;;;;11.90;10.65;;;;;;;24.52;92.51;158682.16;4913660;29;20043;-76
2022/08/17 08:23:34;;;;;;;12.23;8.75;;;;;;;24.58;91.87;158699.00;4867434;29;20073;-76
2022/08/17 08:26:29;;;;;;;12.55;8.80;;;;;;;24.84;92.43;158764.91;4914471;29;20036;-75
2022/08/17 08:29:21;;;;;;;9.75;7.50;;;;;;;25.09;90.76;158827.03;4930242;29;20491;-76
2022/08/17 08:31:56;;;;;;;11.15;6.90;;;;;;;25.27;87.05;158872.31;4910340;29;20037;-77
2022/08/17 08:34:37;;;;;;;10.10;6.00;;;;;;;25.35;81.13;158891.72;4895112;29;20056;-76
2022/08/17 08:37:20;;;;;;;6.93;5.50;;;;;;;25.44;81.50;158916.28;4890097;29;20043;-75
2022/08/17 08:40:06;;;;;;;6.32;5.13;;;;;;;25.64;75.76;158965.47;4902702;29;20463;-76
2022/08/17 08:42:59;;;;;;;6.90;5.28;;;;;;;25.78;78.49;159000.38;4896164;29;20040;-76
2022/08/17 08:45:45;;;;;;;8.20;5.82;;;;;;;25.89;76.94;159028.84;4892370;29;20048;-77
2022/08/17 08:48:14;;;;;;;7.18;4.50;;;;;;;25.93;74.33;159037.97;4923237;29;20044;-76
2022/08/17 08:50:46;;;;;;;6.15;4.82;;;;;;;26.06;74.71;159070.31;4915547;29;20131;-76
2022/08/17 08:53:29;;;;;;;5.97;5.03;;;;;;;26.34;76.38;159142.78;4913248;29;20035;-76
2022/08/17 08:56:02;;;;;;;7.25;5.15;;;;;;;26.50;75.68;159181.59;4912568;29;20127;-76
2022/08/17 08:58:43;;;;;;;8.18;5.38;;;;;;;26.62;74.77;159212.75;4907513;29;20028;-76
2022/08/17 09:01:17;;;;;;;5.97;4.80;;;;;;;26.68;74.41;159228.25;4907210;29;20048;-76
2022/08/17 09:04:24;;;;;;;6.00;4.85;;;;;;;26.93;73.37;159290.38;4896921;29;20513;-76
2022/08/17 09:07:10;;;;;;;8.93;4.80;;;;;;;27.14;75.72;159343.47;4910699;29;20051;-76
2022/08/17 09:09:45;;;;;;;6.65;5.13;;;;;;;27.29;74.46;159382.34;4906351;29;20078;-77
2022/08/17 09:12:15;;;;;;;8.27;5.00;;;;;;;27.28;69.50;159378.50;4914691;29;20050;-76
2022/08/17 09:15:00;;;;;;;9.90;5.43;;;;;;;27.21;71.49;159360.31;4908095;29;20044;-75
2022/08/17 09:17:48;;;;;;;12.27;4.97;;;;;;;27.20;71.82;159359.03;4906000;29;20518;-76
2022/08/17 09:20:23;;;;;;;8.60;5.53;;;;;;;27.23;72.53;159365.50;4910958;29;20072;-75
2022/08/17 09:22:56;;;;;;;8.27;5.00;;;;;;;27.32;73.10;159388.84;4911459;29;20571;-76
2022/08/17 09:25:30;;;;;;;6.55;5.57;;;;;;;27.41;72.93;159412.16;4908709;29;20044;-76
2022/08/17 09:28:18;;;;;;;9.02;5.30;;;;;;;27.49;73.59;159432.84;4907768;29;20050;-75
2022/08/17 09:30:49;;;;;;;10.05;5.65;;;;;;;27.47;73.17;159426.41;4888199;29;20351;-76
2022/08/17 09:33:21;;;;;;;13.23;5.47;;;;;;;27.55;72.86;159447.09;4910693;29;20184;-77
2022/08/17 09:35:56;;;;;;;7.03;5.10;;;;;;;27.60;70.66;159460.06;4895288;29;20075;-74
2022/08/17 09:38:43;;;;;;;6.93;5.30;;;;;;;27.84;71.24;159519.59;4912941;29;20051;-76
2022/08/17 09:41:27;;;;;;;6.15;5.47;;;;;;;28.03;69.56;159567.56;4891651;29;20031;-76
2022/08/17 09:44:12;;;;;;;13.80;6.10;;;;;;;27.96;71.44;159552.03;4912425;29;20115;-76
2022/08/17 09:46:52;;;;;;;6.70;5.50;;;;;;;28.05;70.11;159574.06;4913385;29;20573;-77
2022/08/17 09:49:26;;;;;;;5.22;4.72;;;;;;;28.11;69.24;159588.31;4915070;29;20565;-76
2022/08/17 09:52:09;;;;;;;5.93;4.72;;;;;;;28.28;69.87;159632.34;4919600;29;20067;-75
2022/08/17 09:54:38;;;;;;;7.50;5.07;;;;;;;28.40;69.61;159660.84;4912040;29;20125;-76
2022/08/17 09:57:17;;;;;;;10.15;5.50;;;;;;;28.44;67.37;159672.47;4911767;29;20035;-76
2022/08/17 09:59:52;;;;;;;6.80;5.10;;;;;;;28.70;68.81;159738.59;4913968;29;20048;-76
2022/08/17 10:02:20;;;;;;;10.00;5.15;;;;;;;28.82;65.65;159767.09;4910051;29;20054;-76
2022/08/17 10:05:12;;;;;;;8.05;4.72;;;;;;;29.03;63.76;159821.56;4913153;29;20748;-76
2022/08/17 10:07:48;;;;;;;8.85;4.90;;;;;;;29.18;63.70;159857.84;4909711;29;20036;-76
2022/08/17 10:10:18;;;;;;;12.00;4.30;;;;;;;29.21;61.99;159866.94;4912558;29;20119;-75
2022/08/17 10:13:35;;;;;;;5.90;3.95;;;;;;;29.36;59.15;159903.25;4909630;29;20040;-75
2022/08/17 10:16:28;;;;;;;5.13;3.50;;;;;;;29.49;55.13;159936.94;4910958;29;20040;-75
2022/08/17 10:19:16;;;;;;;5.20;3.53;;;;;;;29.49;54.74;159936.94;4908258;29;20052;-76
2022/08/17 10:27:27;;;;;;;5.45;3.85;;;;;;;28.73;57.34;159746.41;4910474;29;20067;-76
2022/08/17 10:29:57;;;;;;;11.30;3.90;;;;;;;28.47;57.67;159679.00;4894254;29;20050;-75
2022/08/17 10:32:31;;;;;;;6.65;3.78;;;;;;;28.34;58.27;159646.59;4893141;29;20124;-76
2022/08/17 10:35:13;;;;;;;3.83;3.33;;;;;;;28.24;60.08;159620.72;4910548;29;20058;-76
2022/08/17 10:37:59;;;;;;;5.15;4.13;;;;;;;28.32;57.63;159641.44;4908321;29;20047;-75
2022/08/17 10:40:31;;;;;;;4.43;3.88;;;;;;;28.28;60.42;159631.06;4876455;29;20036;-76
2022/08/17 10:43:03;;;;;;;8.52;4.00;;;;;;;28.35;59.62;159650.50;4910662;29;20047;-75
2022/08/17 10:45:44;;;;;;;8.07;4.30;;;;;;;28.30;59.52;159637.53;4888003;29;20447;-75
2022/08/17 10:48:11;;;;;;;8.68;4.05;;;;;;;28.48;58.22;159682.88;4890507;29;20040;-76
2022/08/17 10:51:02;;;;;;;5.50;4.15;;;;;;;28.56;57.86;159702.38;4908819;29;20538;-77
2022/08/17 10:53:30;;;;;;;4.95;4.07;;;;;;;28.81;57.87;159765.81;4902828;29;20120;-77
2022/08/17 10:56:11;;;;;;;5.47;3.78;;;;;;;29.16;56.02;159854.00;4910232;29;20044;-78
2022/08/17 10:58:49;;;;;;;5.07;3.80;;;;;;;29.37;54.85;159905.84;4890006;29;20047;-77
2022/08/17 11:01:15;;;;;;;5.75;3.78;;;;;;;29.53;55.37;159947.28;4896699;29;20040;-77
2022/08/17 11:03:54;;;;;;;5.72;3.58;;;;;;;29.60;52.83;159965.44;4910247;29;20538;-77
2022/08/17 11:06:28;;;;;;;6.13;3.50;;;;;;;29.68;54.63;159984.88;4894116;29;20048;-77
2022/08/17 11:09:18;;;;;;;7.13;3.33;;;;;;;29.46;50.57;159929.13;4912749;29;20123;-78
2022/08/17 11:12:25;;;;;;;4.45;3.30;;;;;;;29.20;51.37;159864.38;4907789;29;20032;-78
2022/08/17 11:14:56;;;;;;;4.45;3.42;;;;;;;29.04;52.76;159824.13;4907519;29;20044;-79
2022/08/17 11:17:42;;;;;;;5.05;3.28;;;;;;;29.02;51.40;159818.94;4881115;29;20048;-79
2022/08/17 11:20:33;;;;;;;4.28;3.00;;;;;;;28.95;53.80;159800.78;4913696;29;20051;-77
2022/08/17 11:23:13;;;;;;;7.57;3.72;;;;;;;28.83;53.25;159771.00;4892428;29;20131;-77
2022/08/17 11:25:50;;;;;;;4.82;3.70;;;;;;;28.69;57.47;159734.75;4889894;29;20043;-77
2022/08/17 11:28:20;;;;;;;5.22;3.80;;;;;;;28.63;54.77;159720.50;4894948;29;20066;-77
2022/08/17 11:30:51;;;;;;;4.32;3.72;;;;;;;28.63;55.41;159719.19;4913715;29;20064;-78
2022/08/17 11:33:28;;;;;;;6.65;4.15;;;;;;;28.50;57.56;159686.72;4913982;29;20044;-77
2022/08/17 11:36:08;;;;;;;8.85;4.50;;;;;;;28.59;56.56;159708.81;4911487;29;20032;-77
2022/08/17 11:39:08;;;;;;;5.65;4.30;;;;;;;28.69;56.17;159734.75;4913862;29;20063;-77
2022/08/17 11:41:49;;;;;;;5.05;4.40;;;;;;;29.49;55.00;159938.22;4912278;29;20032;-77
2022/08/17 11:44:20;;;;;;;4.68;3.75;;;;;;;29.84;54.20;160026.41;4907229;29;20513;-75
2022/08/17 11:53:37;;;;;;;6.45;3.75;;;;;;;29.35;57.37;159901.97;4895488;29;20460;-78
2022/08/17 11:56:05;;;;;;;6.72;3.60;;;;;;;28.99;53.96;159811.19;4897738;29;20050;-77
2022/08/17 11:58:37;;;;;;;5.18;4.18;;;;;;;28.81;55.10;159765.81;4914520;29;20044;-77
2022/08/17 12:01:11;;;;;;;5.63;3.75;;;;;;;28.86;57.50;159777.53;4898788;29;20104;-77
2022/08/17 12:03:37;;;;;;;7.78;3.92;;;;;;;28.92;55.35;159794.34;4880518;29;20096;-77
2022/08/17 12:06:18;;;;;;;6.13;3.85;;;;;;;29.00;55.41;159813.75;4911161;29;20040;-77